Time;durP1;ratioP1;P1;durP2;ratioP2;P2;SDS_P1;SDS_P2;PMS_P1;PMS_P2;Temp;Humidity;BMP_temperature;BMP_pressure;BME280_temperature;BME280_humidity;BME280_pressure;Samples;Min_cycle;Max_cycle;Signal;HPM_P1;HPM_P2
2021/11/16 00:00:25;;;;;;;63.80;29.27;;;5.90;99.90;;;;;;5031780;28;20408;-40
2021/11/16 00:02:51;;;;;;;66.15;32.42;;;5.90;99.90;;;;;;5031684;28;20032;-40
2021/11/16 00:05:16;;;;;;;72.25;34.97;;;5.90;99.90;;;;;;5031826;28;20469;-40
2021/11/16 00:07:42;;;;;;;71.85;33.05;;;5.90;99.90;;;;;;5030641;28;20026;-41
2021/11/16 00:10:08;;;;;;;74.10;35.00;;;5.90;99.90;;;;;;5031595;28;20032;-40
2021/11/16 00:12:35;;;;;;;70.47;34.15;;;5.90;99.90;;;;;;5031723;28;20108;-40
2021/11/16 00:15:01;;;;;;;66.15;32.58;;;5.90;99.90;;;;;;5031662;28;20108;-40
2021/11/16 00:17:26;;;;;;;64.35;31.80;;;5.90;99.90;;;;;;5031738;28;20063;-41
2021/11/16 00:19:52;;;;;;;61.05;28.38;;;5.90;99.90;;;;;;5031379;28;20128;-40
2021/11/16 00:22:19;;;;;;;74.18;37.35;;;5.90;99.90;;;;;;5031533;28;20036;-42
2021/11/16 00:27:27;;;;;;;66.72;34.22;;;5.90;99.90;;;;;;5031962;28;20056;-39
2021/11/16 00:29:54;;;;;;;78.45;38.28;;;5.90;99.90;;;;;;5031362;28;20029;-40
2021/11/16 00:32:19;;;;;;;79.85;37.03;;;5.90;99.90;;;;;;5031462;28;20492;-40
2021/11/16 00:34:45;;;;;;;80.03;39.05;;;5.80;99.90;;;;;;5031298;28;20034;-42
2021/11/16 00:37:10;;;;;;;77.80;35.83;;;5.80;99.90;;;;;;5032550;28;20041;-40
2021/11/16 00:39:36;;;;;;;62.53;31.02;;;5.80;99.90;;;;;;5034356;28;20033;-39
2021/11/16 00:42:02;;;;;;;71.15;33.72;;;5.90;99.90;;;;;;5035115;28;20079;-40
2021/11/16 00:44:27;;;;;;;62.72;31.33;;;5.90;99.90;;;;;;5035302;28;20096;-39
2021/11/16 00:46:53;;;;;;;64.32;30.63;;;5.90;99.90;;;;;;5035002;28;20487;-41
2021/11/16 00:49:18;;;;;;;54.90;26.67;;;5.90;99.90;;;;;;5035068;28;20344;-43
2021/11/16 00:51:44;;;;;;;68.20;32.40;;;5.90;99.90;;;;;;5035046;28;20030;-39
2021/11/16 00:54:10;;;;;;;71.05;33.58;;;5.90;99.90;;;;;;5033915;28;20022;-39
2021/11/16 00:56:36;;;;;;;71.88;34.63;;;5.90;99.90;;;;;;5034986;28;20056;-41
2021/11/16 00:59:02;;;;;;;68.28;31.98;;;5.90;99.90;;;;;;5034755;28;20109;-43
2021/11/16 01:01:28;;;;;;;68.93;32.08;;;5.90;99.90;;;;;;5034943;28;20355;-40
2021/11/16 01:03:54;;;;;;;68.68;32.13;;;5.90;99.90;;;;;;5034740;28;20108;-42
2021/11/16 01:06:19;;;;;;;65.40;30.52;;;5.90;99.90;;;;;;5034830;28;20380;-43
2021/11/16 01:08:45;;;;;;;66.55;32.05;;;5.90;99.90;;;;;;5033926;28;20017;-40
2021/11/16 01:11:10;;;;;;;60.78;29.95;;;5.90;99.90;;;;;;5034635;28;20140;-40
2021/11/16 01:13:37;;;;;;;61.45;29.65;;;5.90;99.90;;;;;;5034730;28;20032;-40
2021/11/16 01:16:03;;;;;;;57.35;27.02;;;5.90;99.90;;;;;;5034492;28;20037;-40
2021/11/16 01:18:29;;;;;;;61.42;27.95;;;6.00;99.90;;;;;;5034569;28;20026;-44
2021/11/16 01:20:55;;;;;;;65.03;32.00;;;6.00;99.90;;;;;;5034430;28;20048;-40
2021/11/16 01:23:21;;;;;;;62.17;29.95;;;6.00;99.90;;;;;;5033511;28;20032;-40
2021/11/16 01:25:48;;;;;;;65.72;31.20;;;6.00;99.90;;;;;;5034415;28;20048;-40
2021/11/16 01:28:17;;;;;;;66.90;33.42;;;6.00;99.90;;;;;;5034363;28;20030;-43
2021/11/16 01:30:47;;;;;;;73.97;35.20;;;5.90;99.90;;;;;;5034485;28;20033;-41
2021/11/16 01:33:15;;;;;;;76.07;36.20;;;5.90;99.90;;;;;;5033674;28;20111;-41
2021/11/16 01:35:43;;;;;;;68.95;31.55;;;5.90;99.90;;;;;;5034389;28;20366;-39
2021/11/16 01:38:11;;;;;;;65.53;32.28;;;5.90;99.90;;;;;;5015060;28;20433;-40
2021/11/16 01:40:38;;;;;;;77.72;38.58;;;5.80;99.90;;;;;;5015165;28;20063;-40
2021/11/16 01:43:07;;;;;;;79.47;38.10;;;5.80;99.90;;;;;;5014926;28;20060;-39
2021/11/16 01:45:33;;;;;;;80.43;39.42;;;5.70;99.90;;;;;;5015092;28;20026;-43
2021/11/16 01:47:59;;;;;;;72.60;33.90;;;5.70;99.90;;;;;;5014579;28;20022;-42
2021/11/16 01:50:25;;;;;;;76.55;34.78;;;5.70;99.90;;;;;;5014749;28;20473;-39
2021/11/16 01:52:51;;;;;;;67.68;32.90;;;5.70;99.90;;;;;;5014030;28;20032;-40
2021/11/16 01:55:19;;;;;;;77.72;35.53;;;5.70;99.90;;;;;;5014849;28;20033;-40
2021/11/16 01:57:46;;;;;;;68.95;32.15;;;5.70;99.90;;;;;;5014907;28;20028;-40
2021/11/16 02:00:18;;;;;;;78.53;34.38;;;5.80;99.90;;;;;;5014625;28;20022;-40
2021/11/16 02:02:44;;;;;;;78.63;37.53;;;5.80;99.90;;;;;;5014786;28;20480;-40
2021/11/16 02:05:11;;;;;;;65.65;31.13;;;5.80;99.90;;;;;;5014649;28;20069;-41
2021/11/16 02:07:41;;;;;;;75.75;35.65;;;5.80;99.90;;;;;;5029057;28;20460;-40
2021/11/16 02:10:07;;;;;;;72.72;33.75;;;5.80;99.90;;;;;;5014516;28;20117;-42
2021/11/16 02:12:32;;;;;;;75.13;35.97;;;5.80;99.90;;;;;;5014583;28;20110;-39
2021/11/16 02:14:58;;;;;;;84.13;40.25;;;5.80;99.90;;;;;;5014377;28;20033;-43
2021/11/16 02:17:24;;;;;;;86.35;40.78;;;5.70;99.90;;;;;;5014487;28;20033;-40
2021/11/16 02:19:50;;;;;;;79.43;39.13;;;5.60;99.90;;;;;;5014345;28;20108;-40
2021/11/16 02:22:16;;;;;;;89.65;39.88;;;5.60;99.90;;;;;;5014396;28;20394;-40
2021/11/16 02:24:42;;;;;;;87.07;38.90;;;5.60;99.90;;;;;;5013440;28;20403;-42
2021/11/16 02:27:08;;;;;;;84.45;39.78;;;5.60;99.90;;;;;;5014263;28;20063;-40
2021/11/16 02:29:33;;;;;;;78.68;37.05;;;5.60;99.90;;;;;;5014401;28;20141;-40
2021/11/16 02:31:59;;;;;;;70.38;32.65;;;5.60;99.90;;;;;;5014220;28;20390;-41
2021/11/16 02:34:25;;;;;;;65.50;29.92;;;5.70;99.90;;;;;;5013987;28;20164;-40
2021/11/16 02:36:51;;;;;;;78.47;36.70;;;5.70;99.90;;;;;;5014385;28;20041;-40
2021/11/16 02:39:16;;;;;;;85.35;37.08;;;5.70;99.90;;;;;;5013084;28;20120;-40
2021/11/16 02:41:53;;;;;;;76.95;36.80;;;5.60;99.90;;;;;;5014144;28;20030;-42
2021/11/16 02:44:20;;;;;;;72.43;34.95;;;5.60;99.90;;;;;;5013787;28;20030;-41
2021/11/16 02:46:48;;;;;;;73.72;35.75;;;5.60;99.90;;;;;;5014106;28;20116;-43
2021/11/16 02:49:14;;;;;;;78.10;36.80;;;5.60;99.90;;;;;;5013894;28;20417;-45
2021/11/16 02:51:40;;;;;;;76.22;34.58;;;5.60;99.90;;;;;;5013907;28;20025;-45
2021/11/16 02:54:15;;;;;;;73.35;32.55;;;5.50;99.90;;;;;;5028073;28;20022;-47
2021/11/16 02:56:42;;;;;;;77.72;36.63;;;5.50;99.90;;;;;;5013698;28;20034;-44
2021/11/16 02:59:08;;;;;;;83.63;37.63;;;5.50;99.90;;;;;;5013632;28;20081;-44
2021/11/16 03:01:34;;;;;;;78.45;37.28;;;5.50;99.90;;;;;;5013625;28;20022;-50
2021/11/16 03:04:00;;;;;;;78.10;36.55;;;5.50;99.90;;;;;;5013693;28;20049;-44
2021/11/16 03:06:26;;;;;;;79.10;34.78;;;5.50;99.90;;;;;;5045375;28;20116;-43
2021/11/16 03:08:51;;;;;;;78.60;38.25;;;5.50;99.90;;;;;;5012650;28;20077;-43
2021/11/16 03:11:17;;;;;;;77.80;35.97;;;5.60;99.90;;;;;;5022268;28;20041;-46
2021/11/16 03:13:43;;;;;;;75.95;37.67;;;5.50;99.90;;;;;;5033270;28;20544;-45
2021/11/16 03:16:12;;;;;;;74.75;33.53;;;5.50;99.90;;;;;;5033100;28;20104;-43
2021/11/16 03:18:39;;;;;;;74.95;34.88;;;5.60;99.90;;;;;;5065155;28;20026;-45
2021/11/16 03:21:06;;;;;;;80.05;37.13;;;5.60;99.90;;;;;;5032982;28;20057;-42
2021/11/16 03:23:32;;;;;;;79.88;37.40;;;5.60;99.90;;;;;;5032188;28;20101;-43
2021/11/16 03:26:02;;;;;;;87.63;39.42;;;5.60;99.90;;;;;;5032985;28;20096;-41
2021/11/16 03:28:35;;;;;;;80.72;38.40;;;5.60;99.90;;;;;;5033040;28;20492;-42
2021/11/16 03:31:10;;;;;;;87.93;39.10;;;5.60;99.90;;;;;;5033209;28;20029;-44
2021/11/16 03:33:38;;;;;;;76.32;35.72;;;5.60;99.90;;;;;;5032803;28;20051;-42
2021/11/16 03:36:06;;;;;;;76.28;37.08;;;5.60;99.90;;;;;;5032957;28;20385;-42
2021/11/16 03:38:33;;;;;;;83.13;36.90;;;5.60;99.90;;;;;;5031718;28;20036;-40
2021/11/16 03:40:59;;;;;;;88.95;40.67;;;5.60;99.90;;;;;;5032778;28;20500;-44
2021/11/16 03:43:25;;;;;;;89.80;40.30;;;5.50;99.90;;;;;;5032722;28;20029;-41
2021/11/16 03:45:51;;;;;;;85.43;38.20;;;5.50;99.90;;;;;;5032742;28;20029;-41
2021/11/16 03:48:18;;;;;;;82.25;36.75;;;5.50;99.90;;;;;;5032723;28;20021;-41
2021/11/16 03:50:43;;;;;;;80.43;37.90;;;5.50;99.90;;;;;;5064657;28;20037;-43
2021/11/16 03:53:10;;;;;;;86.65;37.20;;;5.50;99.90;;;;;;5031472;28;20036;-41
2021/11/16 03:55:40;;;;;;;82.20;36.35;;;5.50;99.90;;;;;;5032880;28;20035;-46
2021/11/16 03:58:06;;;;;;;81.35;37.40;;;5.50;99.90;;;;;;5032655;28;20037;-43
2021/11/16 04:00:38;;;;;;;88.75;40.17;;;5.50;99.90;;;;;;5032529;28;20170;-42
2021/11/16 04:03:04;;;;;;;85.57;39.03;;;5.50;99.90;;;;;;5032642;28;20477;-42
2021/11/16 04:05:30;;;;;;;74.25;34.25;;;5.50;99.90;;;;;;5032388;28;20473;-40
2021/11/16 04:07:56;;;;;;;78.85;33.97;;;5.50;99.90;;;;;;5031567;28;20108;-40
2021/11/16 04:10:23;;;;;;;76.28;35.85;;;5.60;99.90;;;;;;5032463;28;20253;-44
2021/11/16 04:12:50;;;;;;;79.15;34.38;;;5.60;99.90;;;;;;5035083;28;20044;-43
2021/11/16 04:15:21;;;;;;;73.63;33.03;;;5.60;99.90;;;;;;5036572;28;20033;-41
2021/11/16 04:17:48;;;;;;;79.43;35.20;;;5.60;99.90;;;;;;5036592;28;20029;-43
2021/11/16 04:20:16;;;;;;;80.03;36.08;;;5.60;99.90;;;;;;5036317;28;20416;-40
2021/11/16 04:22:43;;;;;;;88.45;39.97;;;5.60;99.90;;;;;;5035406;28;20068;-39
2021/11/16 04:25:10;;;;;;;80.93;35.40;;;5.60;99.90;;;;;;5036351;28;20069;-43
2021/11/16 04:27:37;;;;;;;92.72;39.92;;;5.60;99.90;;;;;;5036350;28;20025;-40
2021/11/16 04:30:05;;;;;;;81.20;36.88;;;5.50;99.90;;;;;;5036397;28;20072;-40
2021/11/16 04:32:31;;;;;;;93.70;38.15;;;5.50;99.90;;;;;;5035943;28;20057;-46
2021/11/16 04:34:57;;;;;;;88.10;40.22;;;5.60;99.90;;;;;;5036199;28;20523;-43
2021/11/16 04:37:23;;;;;;;89.75;41.08;;;5.50;99.90;;;;;;5035064;28;20070;-41
2021/11/16 04:39:48;;;;;;;92.18;37.67;;;5.50;99.90;;;;;;5036059;28;20030;-40
2021/11/16 04:42:14;;;;;;;90.07;39.22;;;5.50;99.90;;;;;;5035970;28;20022;-39
2021/11/16 04:44:41;;;;;;;84.00;37.08;;;5.50;99.90;;;;;;5036062;28;20017;-40
2021/11/16 04:47:06;;;;;;;93.68;42.00;;;5.50;99.90;;;;;;5035917;28;20022;-41
2021/11/16 04:49:37;;;;;;;88.13;38.75;;;5.50;99.90;;;;;;5035825;28;20036;-45
2021/11/16 04:54:59;;;;;;;94.68;39.53;;;5.50;99.90;;;;;;5034880;28;20030;-40
2021/11/16 05:02:43;;;;;;;91.20;37.55;;;5.50;99.90;;;;;;5035738;28;20420;-48
2021/11/16 05:05:13;;;;;;;85.70;37.03;;;5.50;99.90;;;;;;5035824;28;20040;-45
2021/11/16 05:07:47;;;;;;;88.03;37.28;;;5.50;99.90;;;;;;5034696;28;20116;-50
2021/11/16 05:10:13;;;;;;;98.30;42.55;;;5.50;99.90;;;;;;5035468;28;20424;-44
2021/11/16 05:12:40;;;;;;;93.47;38.85;;;5.50;99.90;;;;;;5035512;28;20033;-46
2021/11/16 05:15:13;;;;;;;98.50;40.60;;;5.50;99.90;;;;;;5035540;28;20048;-45
2021/11/16 05:17:38;;;;;;;101.50;40.72;;;5.50;99.90;;;;;;5035376;28;20029;-45
2021/11/16 05:20:06;;;;;;;102.80;42.65;;;5.60;99.90;;;;;;5035356;28;20029;-45
2021/11/16 05:22:32;;;;;;;99.55;40.63;;;5.50;99.90;;;;;;5033938;28;20018;-40
2021/11/16 05:24:57;;;;;;;83.05;37.30;;;5.50;99.90;;;;;;5034081;28;20029;-43
2021/11/16 05:27:23;;;;;;;102.55;43.45;;;5.50;99.90;;;;;;5034833;28;20428;-46
2021/11/16 05:29:48;;;;;;;100.10;39.85;;;5.50;99.90;;;;;;5035276;28;20091;-43
2021/11/16 05:32:14;;;;;;;83.93;33.70;;;5.50;99.90;;;;;;5034802;28;20056;-43
2021/11/16 05:34:40;;;;;;;92.25;36.90;;;5.50;99.90;;;;;;5035059;28;20043;-43
2021/11/16 05:37:06;;;;;;;75.75;32.58;;;5.50;99.90;;;;;;5034965;28;20029;-44
2021/11/16 05:39:32;;;;;;;87.20;36.67;;;5.60;99.90;;;;;;5033899;28;20064;-46
2021/11/16 05:41:58;;;;;;;97.68;39.50;;;5.50;99.90;;;;;;5035093;28;20120;-42
2021/11/16 05:44:23;;;;;;;93.28;40.05;;;5.50;99.90;;;;;;5034812;28;20108;-45
2021/11/16 05:46:49;;;;;;;82.90;35.35;;;5.50;99.90;;;;;;5034979;28;20185;-43
2021/11/16 05:49:14;;;;;;;82.70;35.83;;;5.50;99.90;;;;;;5034862;28;20034;-41
2021/11/16 05:51:40;;;;;;;93.30;37.90;;;5.50;99.90;;;;;;5034745;28;20021;-44
2021/11/16 05:54:06;;;;;;;95.35;39.50;;;5.50;99.90;;;;;;5033721;28;20024;-43
2021/11/16 05:56:35;;;;;;;86.68;38.00;;;5.50;99.90;;;;;;5034688;28;20469;-46
2021/11/16 05:59:02;;;;;;;88.95;37.38;;;5.50;99.90;;;;;;5034660;28;20029;-42
2021/11/16 06:01:33;;;;;;;80.68;33.97;;;5.50;99.90;;;;;;5034580;28;20457;-42
2021/11/16 06:03:59;;;;;;;77.65;34.95;;;5.50;99.90;;;;;;5034566;28;20464;-45
2021/11/16 06:06:30;;;;;;;85.70;34.80;;;5.50;99.90;;;;;;5034419;28;20096;-44
2021/11/16 06:08:57;;;;;;;82.97;37.10;;;5.50;99.90;;;;;;5033555;28;20492;-41
2021/11/16 06:11:24;;;;;;;88.53;38.92;;;5.50;99.90;;;;;;5034335;28;20112;-45
2021/11/16 06:13:51;;;;;;;79.38;33.47;;;5.40;99.90;;;;;;5034365;28;20036;-40
2021/11/16 06:16:17;;;;;;;76.60;32.97;;;5.40;99.90;;;;;;5034341;28;20030;-45
2021/11/16 06:18:52;;;;;;;91.68;39.95;;;5.50;99.90;;;;;;5034261;28;20420;-43
2021/11/16 06:21:18;;;;;;;87.95;35.38;;;5.50;99.90;;;;;;5034043;28;20033;-39
2021/11/16 06:23:44;;;;;;;88.18;34.53;;;5.50;99.90;;;;;;5033217;28;20068;-43
2021/11/16 06:26:10;;;;;;;83.07;34.55;;;5.50;99.90;;;;;;5034146;28;20025;-44
2021/11/16 06:28:35;;;;;;;83.00;33.45;;;5.60;99.90;;;;;;5034039;28;20053;-41
2021/11/16 06:31:01;;;;;;;87.65;35.35;;;5.60;99.90;;;;;;5034044;28;20025;-46
2021/11/16 06:33:27;;;;;;;86.63;35.25;;;5.60;99.90;;;;;;5033818;28;20132;-43
2021/11/16 06:35:52;;;;;;;88.32;37.50;;;5.60;99.90;;;;;;5021691;28;20049;-45
2021/11/16 06:38:19;;;;;;;88.50;34.40;;;5.60;99.90;;;;;;5012813;28;20038;-40
2021/11/16 06:40:47;;;;;;;77.97;34.22;;;5.70;99.90;;;;;;5013738;28;20030;-37
2021/11/16 06:43:24;;;;;;;91.43;38.47;;;5.60;99.90;;;;;;5013838;28;20022;-38
2021/11/16 06:45:54;;;;;;;88.13;37.65;;;5.60;99.90;;;;;;5013745;28;20053;-37
2021/11/16 06:48:20;;;;;;;103.75;40.92;;;5.60;99.90;;;;;;5013551;28;20033;-37
2021/11/16 06:50:48;;;;;;;93.22;38.95;;;5.60;99.90;;;;;;5013536;28;20030;-40
2021/11/16 06:53:21;;;;;;;85.65;34.33;;;5.60;99.90;;;;;;5012665;28;20535;-37
2021/11/16 06:55:46;;;;;;;81.63;34.53;;;5.60;99.90;;;;;;5013601;28;20109;-37
2021/11/16 06:58:12;;;;;;;85.75;34.33;;;5.70;99.90;;;;;;5013652;28;20552;-40
2021/11/16 07:00:37;;;;;;;90.35;35.38;;;5.70;99.90;;;;;;5013351;28;20034;-38
2021/11/16 07:03:04;;;;;;;86.10;33.80;;;5.70;99.90;;;;;;5013508;28;20049;-38
2021/11/16 07:05:29;;;;;;;76.57;32.30;;;5.70;99.90;;;;;;5013333;28;20029;-38
2021/11/16 07:07:56;;;;;;;83.07;35.65;;;5.70;99.90;;;;;;5012640;28;20030;-37
2021/11/16 07:10:25;;;;;;;83.80;33.78;;;5.70;99.90;;;;;;5013402;28;20072;-37
2021/11/16 07:12:52;;;;;;;83.15;33.65;;;5.70;99.90;;;;;;5013518;28;20185;-40
2021/11/16 07:15:21;;;;;;;69.63;28.23;;;5.70;99.90;;;;;;5013584;28;20146;-37
2021/11/16 07:17:48;;;;;;;68.35;29.67;;;5.80;99.90;;;;;;5013465;28;20022;-39
2021/11/16 07:20:14;;;;;;;70.57;31.55;;;5.80;99.90;;;;;;5013400;28;20026;-37
2021/11/16 07:22:41;;;;;;;64.22;27.60;;;5.80;99.90;;;;;;5012395;28;20034;-40
2021/11/16 07:25:12;;;;;;;80.18;31.10;;;5.80;99.90;;;;;;5013429;28;20452;-39
2021/11/16 07:27:43;;;;;;;75.78;26.65;;;5.80;99.90;;;;;;5013254;28;20021;-40
2021/11/16 07:30:13;;;;;;;69.93;26.88;;;5.80;99.90;;;;;;5013218;28;20037;-40
2021/11/16 07:32:53;;;;;;;79.93;31.75;;;5.80;99.90;;;;;;5013021;28;20042;-39
2021/11/16 07:35:26;;;;;;;81.38;32.38;;;5.80;99.90;;;;;;5013233;28;20044;-39
2021/11/16 07:37:59;;;;;;;66.10;28.38;;;5.80;99.90;;;;;;5012214;28;20025;-39
2021/11/16 07:40:27;;;;;;;64.47;27.60;;;5.80;99.90;;;;;;5013033;28;20482;-36
2021/11/16 07:43:03;;;;;;;77.78;30.23;;;5.80;99.90;;;;;;5027631;28;20033;-37
2021/11/16 07:45:40;;;;;;;;;;;5.80;99.90;;;;;;5031588;28;20022;-38
2021/11/16 07:48:11;;;;;;;69.97;26.38;;;5.90;99.90;;;;;;5030765;28;20369;-38
2021/11/16 07:50:50;;;;;;;80.70;30.13;;;5.90;99.90;;;;;;5031493;28;20033;-37
2021/11/16 07:53:32;;;;;;;63.80;25.13;;;6.00;99.90;;;;;;5029789;28;20104;-40
2021/11/16 07:56:14;;;;;;;73.25;29.30;;;6.00;99.90;;;;;;5031318;28;20057;-38
2021/11/16 07:59:02;;;;;;;71.10;29.02;;;6.00;99.90;;;;;;5031296;28;20056;-39
2021/11/16 08:01:45;;;;;;;66.93;27.08;;;6.00;99.90;;;;;;5030892;28;20022;-37
2021/11/16 08:04:23;;;;;;;71.47;28.02;;;6.10;99.90;;;;;;5031243;28;20108;-37
2021/11/16 08:07:00;;;;;;;89.85;34.03;;;6.10;99.90;;;;;;5031025;28;20053;-38
2021/11/16 08:09:39;;;;;;;79.00;27.98;;;6.10;99.90;;;;;;5030320;28;20101;-36
2021/11/16 08:15:11;;;;;;;66.43;26.98;;;6.20;99.90;;;;;;5031037;28;20037;-37
2021/11/16 08:17:38;;;;;;;74.10;29.80;;;6.20;99.90;;;;;;5030185;28;20037;-38
2021/11/16 08:20:10;;;;;;;76.70;29.63;;;6.30;99.90;;;;;;5030927;28;20030;-41
2021/11/16 08:22:36;;;;;;;80.53;31.52;;;6.30;99.90;;;;;;5030096;28;20029;-39
2021/11/16 08:25:03;;;;;;;68.60;27.40;;;6.40;99.90;;;;;;5031059;28;20021;-37
2021/11/16 08:27:33;;;;;;;75.13;29.00;;;6.50;99.90;;;;;;5026307;28;20025;-39
2021/11/16 08:30:05;;;;;;;78.22;31.65;;;6.50;99.90;;;;;;5028835;28;20037;-38
2021/11/16 08:32:34;;;;;;;77.32;30.90;;;6.60;99.90;;;;;;5030380;28;20084;-39
2021/11/16 08:35:03;;;;;;;67.22;27.55;;;6.60;99.90;;;;;;5030811;28;20030;-41
2021/11/16 08:37:37;;;;;;;77.20;27.90;;;6.70;99.90;;;;;;5029966;28;20034;-41
2021/11/16 08:40:13;;;;;;;72.95;29.92;;;6.90;99.90;;;;;;5029959;28;20373;-38
2021/11/16 08:42:46;;;;;;;79.30;32.00;;;7.00;99.90;;;;;;5030702;28;20041;-38
2021/11/16 08:45:16;;;;;;;81.72;31.65;;;7.00;99.90;;;;;;5030491;28;20045;-39
2021/11/16 08:47:46;;;;;;;72.88;28.83;;;7.00;99.90;;;;;;5030611;28;20030;-37
2021/11/16 08:50:18;;;;;;;56.90;23.85;;;7.00;99.90;;;;;;5030743;28;20068;-37
2021/11/16 08:52:44;;;;;;;65.90;26.75;;;7.10;99.90;;;;;;5029530;28;20516;-37
2021/11/16 08:55:15;;;;;;;77.97;32.30;;;7.10;99.90;;;;;;5030122;28;20079;-40
2021/11/16 08:57:46;;;;;;;63.30;27.17;;;7.10;99.90;;;;;;5030872;28;20041;-38
2021/11/16 09:00:25;;;;;;;64.85;27.70;;;7.10;99.90;;;;;;5034292;28;20032;-37
2021/11/16 09:03:03;;;;;;;76.63;29.65;;;7.10;99.90;;;;;;5033209;28;20096;-38
2021/11/16 09:05:43;;;;;;;70.78;27.35;;;7.10;99.90;;;;;;5034157;28;20742;-38
2021/11/16 09:08:25;;;;;;;73.07;31.13;;;7.20;99.90;;;;;;5022768;28;20030;-39
2021/11/16 09:11:14;;;;;;;64.78;26.55;;;7.10;99.90;;;;;;5028906;28;20045;-37
2021/11/16 09:13:40;;;;;;;54.20;23.80;;;7.20;99.90;;;;;;5034275;28;20396;-37
2021/11/16 09:16:19;;;;;;;61.83;27.55;;;7.20;99.90;;;;;;5034224;28;20025;-38
2021/11/16 09:18:47;;;;;;;68.45;30.30;;;7.20;99.90;;;;;;5033840;28;20388;-39
2021/11/16 09:21:22;;;;;;;71.95;27.92;;;7.20;99.90;;;;;;5034006;28;20472;-37
2021/11/16 09:24:00;;;;;;;64.97;29.13;;;7.20;99.90;;;;;;5032983;28;20354;-37
2021/11/16 09:26:37;;;;;;;63.33;25.92;;;7.20;99.90;;;;;;5033618;28;20021;-37
2021/11/16 09:29:12;;;;;;;60.22;25.60;;;7.20;99.90;;;;;;5033562;28;20045;-37
2021/11/16 09:31:47;;;;;;;62.78;26.83;;;7.30;99.90;;;;;;5033755;28;20131;-38
2021/11/16 09:34:12;;;;;;;68.57;27.48;;;7.30;99.90;;;;;;5033476;28;20041;-37
2021/11/16 09:36:42;;;;;;;65.82;25.20;;;7.30;99.90;;;;;;5033718;28;20026;-37
2021/11/16 09:39:17;;;;;;;57.90;24.13;;;7.40;99.90;;;;;;5032727;28;20475;-40
2021/11/16 09:41:49;;;;;;;64.78;29.35;;;7.40;99.90;;;;;;5033370;28;20477;-37
2021/11/16 09:44:26;;;;;;;73.63;31.83;;;7.40;99.90;;;;;;5032270;28;20449;-37
2021/11/16 09:47:17;;;;;;;75.00;31.15;;;7.30;99.90;;;;;;5032537;28;20420;-38
2021/11/16 09:49:54;;;;;;;80.57;32.60;;;7.20;99.90;;;;;;5033200;28;20061;-37
2021/11/16 09:52:29;;;;;;;95.38;35.80;;;7.20;99.90;;;;;;5032570;28;20053;-37
2021/11/16 09:55:02;;;;;;;74.07;30.70;;;7.10;99.90;;;;;;5033399;28;20026;-37
2021/11/16 09:57:38;;;;;;;71.10;30.10;;;7.10;99.90;;;;;;5033450;28;20029;-37
2021/11/16 10:00:17;;;;;;;75.13;32.13;;;7.20;99.90;;;;;;5033308;28;20112;-37
2021/11/16 10:02:47;;;;;;;70.70;30.35;;;7.30;99.90;;;;;;5033344;28;20021;-38
2021/11/16 10:05:22;;;;;;;70.13;30.50;;;7.30;99.90;;;;;;5033457;28;20091;-37
2021/11/16 10:07:53;;;;;;;80.15;31.50;;;7.30;99.90;;;;;;5032163;28;20018;-37
2021/11/16 10:10:22;;;;;;;83.38;34.70;;;7.30;99.90;;;;;;5032391;28;20062;-37
2021/11/16 10:12:52;;;;;;;80.70;34.63;;;7.30;99.90;;;;;;5032927;28;20099;-37
2021/11/16 10:15:21;;;;;;;91.13;35.65;;;7.30;99.90;;;;;;5033039;28;20029;-39
2021/11/16 10:17:48;;;;;;;92.75;36.08;;;7.30;99.90;;;;;;5032889;28;20029;-37
2021/11/16 10:20:18;;;;;;;72.85;30.73;;;7.20;99.90;;;;;;5032866;28;20388;-37
2021/11/16 10:22:50;;;;;;;85.57;34.10;;;7.30;99.90;;;;;;5032020;28;20025;-37
2021/11/16 10:25:18;;;;;;;69.25;27.95;;;7.50;99.90;;;;;;5032820;28;20064;-37
2021/11/16 10:27:45;;;;;;;69.43;29.10;;;7.50;99.90;;;;;;5032812;28;20119;-37
2021/11/16 10:30:21;;;;;;;54.80;24.13;;;7.60;99.90;;;;;;5032736;28;20385;-37
2021/11/16 10:33:10;;;;;;;73.10;31.10;;;7.70;99.90;;;;;;5032663;28;20056;-37
2021/11/16 10:35:42;;;;;;;88.40;35.25;;;7.70;99.90;;;;;;5032625;28;20108;-37
2021/11/16 10:38:11;;;;;;;71.90;32.55;;;7.70;99.90;;;;;;5031727;28;20025;-37
2021/11/16 10:40:38;;;;;;;66.50;29.50;;;7.70;99.90;;;;;;5031872;28;20048;-39
2021/11/16 10:43:05;;;;;;;75.65;31.48;;;7.70;99.90;;;;;;5032509;28;20462;-37
2021/11/16 10:45:34;;;;;;;78.55;32.38;;;7.80;99.90;;;;;;5032562;28;20018;-37
2021/11/16 10:48:04;;;;;;;76.28;31.27;;;7.80;99.90;;;;;;5032320;28;20100;-38
2021/11/16 10:50:31;;;;;;;76.05;33.53;;;7.70;99.90;;;;;;5032465;28;20032;-37
2021/11/16 10:53:07;;;;;;;82.57;32.45;;;7.70;99.90;;;;;;5031591;28;20527;-37
2021/11/16 10:55:47;;;;;;;79.30;33.47;;;7.70;99.90;;;;;;5032337;28;20025;-37
2021/11/16 10:58:21;;;;;;;83.25;36.08;;;7.60;99.90;;;;;;5032287;28;20112;-37
2021/11/16 11:01:01;;;;;;;71.88;30.77;;;7.50;99.90;;;;;;5031981;28;20029;-40
2021/11/16 11:03:38;;;;;;;80.20;31.75;;;7.60;99.90;;;;;;5032334;28;20384;-37
2021/11/16 11:06:08;;;;;;;75.95;33.78;;;7.50;99.90;;;;;;5032022;28;20140;-37
2021/11/16 11:08:39;;;;;;;71.93;32.67;;;7.50;99.90;;;;;;5031168;28;20156;-37
2021/11/16 11:11:15;;;;;;;75.63;34.85;;;7.60;99.90;;;;;;5031771;28;20036;-39
2021/11/16 11:13:51;;;;;;;80.65;33.22;;;7.50;99.90;;;;;;5031941;28;20033;-37
2021/11/16 11:16:18;;;;;;;74.25;31.83;;;7.60;99.90;;;;;;5031728;28;20496;-38
2021/11/16 11:18:48;;;;;;;67.80;30.70;;;7.70;99.90;;;;;;5031890;28;20106;-38
2021/11/16 11:21:34;;;;;;;74.72;32.60;;;7.80;99.90;;;;;;5031718;28;20032;-44
2021/11/16 11:24:17;;;;;;;73.32;31.35;;;7.70;99.90;;;;;;5030836;28;20029;-37
2021/11/16 11:26:45;;;;;;;77.72;32.63;;;7.80;99.90;;;;;;5030523;28;20025;-40
2021/11/16 11:29:35;;;;;;;69.38;32.33;;;7.80;99.90;;;;;;5030441;28;20021;-40
2021/11/16 11:32:06;;;;;;;84.40;35.28;;;7.80;99.90;;;;;;5031787;28;20345;-37
2021/11/16 11:34:37;;;;;;;78.35;34.38;;;7.80;99.90;;;;;;5031596;28;20041;-38
2021/11/16 11:37:09;;;;;;;71.05;32.17;;;7.70;99.90;;;;;;5031623;28;20029;-38
2021/11/16 11:39:36;;;;;;;70.63;32.33;;;7.70;99.90;;;;;;5031584;28;20026;-47
2021/11/16 11:42:02;;;;;;;76.20;34.20;;;7.60;99.90;;;;;;5031492;28;20025;-39
2021/11/16 11:44:38;;;;;;;72.82;33.10;;;7.70;99.90;;;;;;5031528;28;20022;-38
2021/11/16 11:47:04;;;;;;;65.15;28.13;;;7.70;99.90;;;;;;5031549;28;20022;-37
2021/11/16 11:49:30;;;;;;;70.55;29.30;;;7.80;99.90;;;;;;5031440;28;20036;-37
2021/11/16 11:51:59;;;;;;;71.18;31.23;;;7.80;99.90;;;;;;5031436;28;20084;-38
2021/11/16 11:54:25;;;;;;;62.88;27.90;;;7.80;99.90;;;;;;5030351;28;20018;-37
2021/11/16 11:56:54;;;;;;;69.22;30.20;;;7.90;99.90;;;;;;5031431;28;20029;-43
2021/11/16 11:59:21;;;;;;;69.70;31.50;;;7.80;99.90;;;;;;5031342;28;20108;-38
2021/11/16 12:01:47;;;;;;;77.68;34.53;;;7.90;99.90;;;;;;5031341;28;20029;-37
2021/11/16 12:04:15;;;;;;;81.82;34.67;;;7.80;99.90;;;;;;5031258;28;20030;-37
2021/11/16 12:06:40;;;;;;;64.20;29.75;;;7.80;99.90;;;;;;5031262;28;20060;-38
2021/11/16 12:09:08;;;;;;;76.68;32.08;;;7.80;99.90;;;;;;5030321;28;20029;-37
2021/11/16 12:11:33;;;;;;;66.38;29.80;;;7.90;99.90;;;;;;5016433;28;20317;-41
2021/11/16 12:14:06;;;;;;;67.28;28.75;;;7.90;99.90;;;;;;5029419;28;20029;-38
2021/11/16 12:16:44;;;;;;;74.00;32.13;;;8.00;99.90;;;;;;5029642;28;20033;-38
2021/11/16 12:19:12;;;;;;;71.18;32.53;;;7.90;99.90;;;;;;5029706;28;20517;-38
2021/11/16 12:21:43;;;;;;;69.35;31.17;;;7.90;99.90;;;;;;5029532;28;20473;-38
2021/11/16 12:24:30;;;;;;;68.95;30.83;;;7.90;99.90;;;;;;5028466;28;20025;-37
2021/11/16 12:27:07;;;;;;;66.07;30.08;;;7.90;99.90;;;;;;5028995;28;20056;-38
2021/11/16 12:29:39;;;;;;;72.47;34.10;;;8.00;99.90;;;;;;5029080;28;20121;-37
2021/11/16 12:32:32;;;;;;;74.40;31.73;;;7.90;99.90;;;;;;5029462;28;20418;-39
2021/11/16 12:35:09;;;;;;;69.13;30.98;;;8.00;99.90;;;;;;5030913;28;20042;-37
2021/11/16 12:37:39;;;;;;;69.55;29.17;;;8.10;99.90;;;;;;5032536;28;20029;-37
2021/11/16 12:40:15;;;;;;;70.28;31.85;;;8.10;99.90;;;;;;5033045;28;20032;-37
2021/11/16 12:43:06;;;;;;;69.10;29.45;;;8.20;99.90;;;;;;5033126;28;20067;-39
2021/11/16 12:46:10;;;;;;;74.70;31.90;;;8.20;99.90;;;;;;5033223;28;20025;-38
2021/11/16 12:48:40;;;;;;;68.10;31.63;;;8.20;99.90;;;;;;5031867;28;20112;-37
2021/11/16 12:51:15;;;;;;;64.63;29.40;;;8.20;99.90;;;;;;5032995;28;20030;-37
2021/11/16 12:53:59;;;;;;;58.42;27.05;;;8.10;99.90;;;;;;5032079;28;20204;-38
2021/11/16 12:56:42;;;;;;;69.78;30.10;;;8.30;99.90;;;;;;5032184;28;20036;-38
2021/11/16 12:59:15;;;;;;;71.60;30.52;;;8.30;99.90;;;;;;5032711;28;20029;-37
2021/11/16 13:01:42;;;;;;;73.40;32.88;;;8.30;99.90;;;;;;5032485;28;20055;-39
2021/11/16 13:04:11;;;;;;;69.15;31.02;;;8.10;99.90;;;;;;5022619;28;20022;-37